Time;durP1;ratioP1;P1;durP2;ratioP2;P2;SDS_P1;SDS_P2;PMS_P1;PMS_P2;Temp;Humidity;BMP_temperature;BMP_pressure;BME280_temperature;BME280_humidity;BME280_pressure;Samples;Min_cycle;Max_cycle;Signal;HPM_P1;HPM_P2
2021/11/04 00:00:36;;;;;;;20.07;14.43;;;9.50;89.80;;;;;;5028504;28;20487;-42
2021/11/04 00:03:04;;;;;;;19.43;15.00;;;9.50;89.80;;;;;;5019158;28;20966;-41
2021/11/04 00:05:34;;;;;;;18.63;15.10;;;9.50;89.80;;;;;;5025275;28;20512;-41
2021/11/04 00:08:04;;;;;;;20.43;15.10;;;9.50;89.80;;;;;;5002691;28;20468;-42
2021/11/04 00:10:35;;;;;;;20.07;15.20;;;9.50;89.80;;;;;;5026807;28;20530;-42
2021/11/04 00:13:02;;;;;;;20.47;15.63;;;9.50;89.80;;;;;;5011075;28;20463;-42
2021/11/04 00:15:29;;;;;;;22.53;15.87;;;9.50;89.80;;;;;;5010864;28;20905;-42
2021/11/04 00:17:58;;;;;;;19.60;15.30;;;9.50;89.80;;;;;;5038805;28;20974;-44
2021/11/04 00:20:26;;;;;;;22.00;16.60;;;9.50;89.80;;;;;;5035528;28;20459;-43
2021/11/04 00:22:53;;;;;;;23.83;18.53;;;9.50;89.80;;;;;;5043853;28;20573;-42
2021/11/04 00:25:20;;;;;;;18.47;15.00;;;9.40;89.80;;;;;;5012548;28;20455;-42
2021/11/04 00:27:48;;;;;;;19.40;15.97;;;9.50;89.80;;;;;;5023071;28;20459;-42
2021/11/04 00:30:16;;;;;;;21.17;16.63;;;9.40;89.80;;;;;;5012604;28;20466;-42
2021/11/04 00:32:48;;;;;;;21.83;16.10;;;9.50;89.80;;;;;;5023784;28;20464;-42
2021/11/04 00:35:15;;;;;;;21.20;15.97;;;9.50;89.80;;;;;;5005737;28;21012;-42
2021/11/04 00:37:43;;;;;;;23.47;15.80;;;9.50;89.80;;;;;;5030138;28;20463;-44
2021/11/04 00:40:12;;;;;;;20.03;14.67;;;9.50;89.80;;;;;;5018924;28;21091;-43
2021/11/04 00:42:40;;;;;;;20.17;15.50;;;9.50;89.80;;;;;;5024834;28;20994;-44
2021/11/04 00:45:08;;;;;;;19.77;15.27;;;9.50;89.80;;;;;;5022613;28;20958;-44
2021/11/04 00:47:35;;;;;;;20.90;16.07;;;9.50;89.80;;;;;;5032260;28;20487;-44
2021/11/04 00:50:04;;;;;;;21.83;16.77;;;9.50;89.80;;;;;;5026964;28;20850;-44
2021/11/04 00:52:31;;;;;;;21.93;16.60;;;9.50;89.80;;;;;;5028183;28;20466;-44
2021/11/04 00:54:57;;;;;;;22.10;17.27;;;9.50;89.80;;;;;;5028486;28;20443;-44
2021/11/04 00:57:24;;;;;;;20.40;16.03;;;9.50;89.80;;;;;;5005897;28;20965;-44
2021/11/04 00:59:51;;;;;;;24.97;16.73;;;9.40;89.80;;;;;;5026807;28;20487;-44
2021/11/04 01:02:18;;;;;;;20.53;16.43;;;9.40;89.80;;;;;;5025542;28;20534;-44
2021/11/04 01:04:44;;;;;;;23.67;17.33;;;9.50;89.80;;;;;;5017568;28;20467;-44
2021/11/04 01:07:11;;;;;;;21.03;16.27;;;9.50;89.80;;;;;;5028961;28;20455;-44
2021/11/04 01:09:38;;;;;;;20.00;15.07;;;9.50;89.80;;;;;;5026015;28;20818;-44
2021/11/04 01:12:05;;;;;;;23.27;15.10;;;9.50;89.80;;;;;;5023828;28;20466;-44
2021/11/04 01:14:32;;;;;;;22.43;16.60;;;9.40;89.80;;;;;;5027583;28;20448;-44
2021/11/04 01:16:59;;;;;;;21.20;15.30;;;9.40;89.80;;;;;;5008017;28;20466;-44
2021/11/04 01:19:25;;;;;;;19.37;14.67;;;9.40;89.80;;;;;;5028757;28;21048;-44
2021/11/04 01:21:52;;;;;;;28.13;16.80;;;9.50;89.80;;;;;;5012337;28;20444;-44
2021/11/04 01:24:19;;;;;;;21.87;16.67;;;9.50;89.80;;;;;;5025431;28;20489;-44
2021/11/04 01:26:46;;;;;;;23.27;17.37;;;9.40;89.80;;;;;;5014282;28;20451;-44
2021/11/04 01:29:12;;;;;;;21.00;15.73;;;9.40;89.80;;;;;;5025910;28;20481;-44
2021/11/04 01:31:39;;;;;;;22.10;17.10;;;9.40;89.80;;;;;;5029358;28;20512;-44
2021/11/04 01:34:06;;;;;;;25.90;17.50;;;9.40;89.80;;;;;;5028267;28;20567;-44
2021/11/04 01:36:33;;;;;;;24.17;17.80;;;9.40;89.80;;;;;;5027389;28;20486;-44
2021/11/04 01:39:00;;;;;;;24.50;17.67;;;9.40;89.80;;;;;;5022962;28;20492;-44
2021/11/04 01:41:27;;;;;;;27.13;18.20;;;9.40;89.80;;;;;;5027582;28;20448;-44
2021/11/04 01:43:53;;;;;;;27.77;19.23;;;9.40;89.80;;;;;;5023998;28;20981;-42
2021/11/04 01:46:21;;;;;;;40.00;26.90;;;9.40;89.80;;;;;;5024377;28;20455;-43
2021/11/04 01:48:49;;;;;;;31.93;21.63;;;9.40;89.80;;;;;;5010632;28;20455;-43
2021/11/04 01:51:19;;;;;;;31.93;21.37;;;9.30;89.80;;;;;;5025599;28;20985;-43
2021/11/04 01:53:46;;;;;;;29.93;18.23;;;9.40;89.80;;;;;;5026045;28;20830;-43
2021/11/04 01:56:13;;;;;;;30.00;20.97;;;9.40;89.80;;;;;;5008963;28;20463;-42
2021/11/04 01:58:40;;;;;;;26.10;18.67;;;9.40;89.80;;;;;;5024459;28;20490;-42
2021/11/04 02:01:07;;;;;;;24.57;17.90;;;9.40;89.80;;;;;;5023441;28;20475;-42
2021/11/04 02:03:42;;;;;;;32.60;19.97;;;9.40;89.80;;;;;;5007980;28;20865;-42
2021/11/04 02:06:33;;;;;;;26.60;18.50;;;9.40;89.80;;;;;;5030047;28;20451;-42
2021/11/04 02:09:09;;;;;;;27.07;17.97;;;9.40;89.80;;;;;;5030186;28;20465;-43
2021/11/04 02:11:39;;;;;;;28.80;20.20;;;9.40;89.80;;;;;;5008552;28;20498;-44
2021/11/04 02:14:23;;;;;;;26.17;17.90;;;9.40;89.80;;;;;;5007895;28;20490;-44
2021/11/04 02:16:52;;;;;;;24.83;18.47;;;9.40;89.80;;;;;;5017764;28;20462;-44
2021/11/04 02:19:33;;;;;;;23.60;17.27;;;9.40;89.80;;;;;;5027250;28;20517;-44
2021/11/04 02:22:02;;;;;;;27.53;17.87;;;9.40;89.80;;;;;;5021725;28;20838;-44
2021/11/04 02:24:45;;;;;;;26.50;18.73;;;9.40;89.80;;;;;;5026327;28;20454;-44
2021/11/04 02:27:14;;;;;;;22.97;16.00;;;9.40;89.80;;;;;;5025535;28;20946;-44
2021/11/04 02:29:43;;;;;;;23.80;16.33;;;9.40;89.80;;;;;;5022593;28;20578;-44
2021/11/04 02:32:11;;;;;;;17.80;13.30;;;9.40;89.80;;;;;;5028911;28;21029;-44
2021/11/04 02:34:40;;;;;;;16.97;12.63;;;9.40;89.80;;;;;;5008934;28;20466;-44
2021/11/04 02:37:08;;;;;;;15.83;11.10;;;9.40;89.80;;;;;;5010382;28;20455;-44
2021/11/04 02:39:36;;;;;;;14.13;10.80;;;9.40;89.80;;;;;;5027858;28;20487;-44
2021/11/04 02:42:04;;;;;;;12.87;8.97;;;9.40;89.80;;;;;;5024073;28;20444;-44
2021/11/04 02:44:34;;;;;;;10.63;7.77;;;9.40;89.80;;;;;;5024146;28;20471;-44
2021/11/04 02:47:00;;;;;;;8.97;6.07;;;9.40;89.80;;;;;;5027883;28;20450;-44
2021/11/04 02:49:30;;;;;;;6.47;5.10;;;9.50;89.80;;;;;;5035349;28;20568;-44
2021/11/04 02:51:57;;;;;;;7.17;5.20;;;9.40;89.80;;;;;;5031709;28;20829;-44
2021/11/04 02:54:24;;;;;;;6.07;4.47;;;9.40;89.80;;;;;;5014449;28;20959;-45
2021/11/04 02:56:55;;;;;;;5.90;4.80;;;9.40;89.80;;;;;;5029916;28;20963;-44
2021/11/04 02:59:24;;;;;;;4.03;3.63;;;9.40;89.80;;;;;;5033303;28;20483;-44
2021/11/04 03:01:55;;;;;;;4.80;3.50;;;9.30;89.80;;;;;;5029563;28;20486;-44
2021/11/04 03:04:22;;;;;;;5.17;3.33;;;9.40;89.80;;;;;;5032878;28;20460;-44
2021/11/04 03:06:49;;;;;;;3.20;3.00;;;9.40;89.80;;;;;;5032991;28;20448;-44
2021/11/04 03:09:18;;;;;;;3.70;2.73;;;9.40;89.80;;;;;;5027664;28;20450;-44
2021/11/04 03:11:46;;;;;;;3.90;3.10;;;9.40;89.80;;;;;;5010427;28;20975;-44
2021/11/04 03:14:15;;;;;;;3.17;2.70;;;9.30;89.80;;;;;;5032743;28;20975;-44
2021/11/04 03:16:45;;;;;;;2.83;2.63;;;9.30;89.80;;;;;;5029913;28;20538;-44
2021/11/04 03:19:14;;;;;;;3.10;2.80;;;9.30;89.80;;;;;;5030408;28;20487;-42
2021/11/04 03:21:46;;;;;;;2.60;2.40;;;9.30;89.80;;;;;;5027947;28;20462;-42
2021/11/04 03:24:21;;;;;;;3.70;3.03;;;9.30;89.80;;;;;;5030763;28;20446;-42
2021/11/04 03:27:01;;;;;;;2.50;2.30;;;9.30;89.80;;;;;;5032785;28;20509;-42
2021/11/04 03:29:35;;;;;;;3.00;2.70;;;9.20;89.80;;;;;;5027141;28;20483;-42
2021/11/04 03:32:04;;;;;;;3.03;1.83;;;9.30;89.80;;;;;;5029347;28;20460;-42
2021/11/04 03:34:32;;;;;;;2.07;1.97;;;9.20;89.80;;;;;;5031488;28;20451;-42
2021/11/04 03:37:00;;;;;;;2.30;2.07;;;9.30;89.80;;;;;;5027235;28;21022;-42
2021/11/04 03:39:28;;;;;;;2.00;1.80;;;9.30;89.80;;;;;;5027652;28;20852;-42
2021/11/04 03:41:57;;;;;;;2.00;1.90;;;9.30;89.80;;;;;;5028146;28;20962;-43
2021/11/04 03:44:24;;;;;;;2.50;2.30;;;9.20;89.80;;;;;;5026809;28;20762;-41
2021/11/04 03:46:53;;;;;;;2.27;2.07;;;9.30;89.80;;;;;;5008697;28;20842;-41
2021/11/04 03:49:22;;;;;;;1.50;1.40;;;9.30;89.80;;;;;;5030965;28;20496;-41
2021/11/04 03:51:51;;;;;;;1.40;1.30;;;9.30;89.80;;;;;;5014117;28;20838;-41
2021/11/04 03:54:21;;;;;;;1.47;1.37;;;9.30;89.80;;;;;;5020806;28;20838;-42
2021/11/04 03:56:52;;;;;;;2.40;1.47;;;9.30;89.80;;;;;;5026151;28;20467;-43
2021/11/04 03:59:21;;;;;;;3.57;1.60;;;9.30;89.80;;;;;;5032810;28;20579;-41
2021/11/04 04:01:49;;;;;;;1.77;1.67;;;9.30;89.80;;;;;;5013506;28;21000;-42
2021/11/04 04:04:16;;;;;;;1.53;1.43;;;9.30;89.80;;;;;;5010478;28;20550;-42
2021/11/04 04:06:43;;;;;;;1.50;1.40;;;9.30;89.80;;;;;;5026009;28;20457;-42
2021/11/04 04:09:11;;;;;;;1.80;1.50;;;9.30;89.80;;;;;;5027729;28;20468;-42
2021/11/04 04:11:38;;;;;;;3.17;1.80;;;9.30;89.80;;;;;;5018435;28;20827;-42
2021/11/04 04:14:04;;;;;;;1.83;1.67;;;9.30;89.80;;;;;;5024820;28;20456;-42
2021/11/04 04:16:31;;;;;;;1.70;1.60;;;9.30;89.80;;;;;;5012666;28;20460;-42
2021/11/04 04:18:58;;;;;;;3.00;2.03;;;9.30;89.60;;;;;;5027103;28;20974;-42
2021/11/04 04:21:25;;;;;;;2.50;1.87;;;9.30;89.30;;;;;;5013836;28;20450;-42
2021/11/04 04:23:51;;;;;;;2.60;2.40;;;9.30;89.40;;;;;;5034185;28;20452;-43
2021/11/04 04:26:18;;;;;;;3.23;2.93;;;9.20;89.30;;;;;;5031115;28;20467;-43
2021/11/04 04:28:45;;;;;;;4.40;3.00;;;9.20;89.50;;;;;;5043391;28;20574;-43
2021/11/04 04:31:12;;;;;;;3.33;2.90;;;9.20;89.50;;;;;;5044737;28;20451;-44
2021/11/04 04:33:39;;;;;;;6.10;3.07;;;9.20;89.20;;;;;;5043057;28;20516;-44
2021/11/04 04:36:06;;;;;;;2.93;2.73;;;9.20;89.40;;;;;;5048560;28;20487;-43
2021/11/04 04:38:33;;;;;;;3.87;2.97;;;9.10;89.70;;;;;;5043650;28;20451;-43
2021/11/04 04:41:00;;;;;;;3.20;2.90;;;9.10;89.80;;;;;;5030493;28;20489;-43
2021/11/04 04:43:27;;;;;;;5.00;3.33;;;9.20;89.60;;;;;;5043293;28;20474;-43
2021/11/04 04:45:54;;;;;;;4.23;3.03;;;9.20;89.10;;;;;;5045692;28;20530;-43
2021/11/04 04:48:20;;;;;;;5.07;3.77;;;9.20;89.20;;;;;;5044255;28;20462;-43
2021/11/04 04:50:48;;;;;;;4.90;3.43;;;9.20;89.00;;;;;;5045329;28;20515;-43
2021/11/04 04:53:14;;;;;;;3.97;3.50;;;9.20;89.10;;;;;;5030202;28;20867;-43
2021/11/04 04:55:41;;;;;;;4.27;3.87;;;9.20;89.10;;;;;;5041988;28;20459;-43
2021/11/04 04:58:08;;;;;;;4.13;3.30;;;9.20;88.90;;;;;;5024982;28;20452;-43
2021/11/04 05:00:35;;;;;;;3.37;3.03;;;9.10;89.20;;;;;;5046091;28;20486;-43
2021/11/04 05:03:05;;;;;;;3.80;3.20;;;9.10;89.30;;;;;;5038535;28;20444;-43
2021/11/04 05:05:31;;;;;;;4.13;3.10;;;9.20;89.10;;;;;;5027932;28;20512;-43
2021/11/04 05:07:59;;;;;;;5.73;3.57;;;9.20;89.00;;;;;;5041649;28;20452;-43
2021/11/04 05:10:25;;;;;;;4.20;3.53;;;9.20;88.80;;;;;;5044723;28;20717;-43
2021/11/04 05:12:52;;;;;;;3.20;2.90;;;9.10;88.80;;;;;;5044151;28;20563;-43
2021/11/04 05:15:19;;;;;;;3.20;2.70;;;9.10;89.00;;;;;;5044755;28;20480;-43
2021/11/04 05:17:46;;;;;;;8.10;4.10;;;9.10;89.10;;;;;;5025444;28;20471;-43
2021/11/04 05:20:13;;;;;;;3.53;3.20;;;9.10;89.10;;;;;;5041978;28;20491;-43
2021/11/04 05:22:39;;;;;;;3.20;2.90;;;9.10;89.20;;;;;;5041249;28;20447;-43
2021/11/04 05:25:06;;;;;;;4.90;3.27;;;9.00;89.20;;;;;;5039595;28;20455;-43
2021/11/04 05:27:33;;;;;;;4.30;3.23;;;9.00;89.40;;;;;;5027110;28;20535;-43
2021/11/04 05:30:01;;;;;;;4.90;3.57;;;9.00;89.60;;;;;;5037997;28;20492;-43
2021/11/04 05:32:28;;;;;;;3.60;3.30;;;8.90;89.70;;;;;;5046515;28;20876;-44
2021/11/04 05:34:54;;;;;;;3.47;3.17;;;8.90;89.80;;;;;;5045921;28;20460;-44
2021/11/04 05:37:21;;;;;;;3.47;3.17;;;9.00;89.80;;;;;;5042608;28;20531;-44
2021/11/04 05:39:48;;;;;;;4.67;3.50;;;8.90;89.80;;;;;;5043826;28;20487;-44
2021/11/04 05:42:15;;;;;;;5.33;4.07;;;8.90;89.80;;;;;;5046616;28;20451;-44
2021/11/04 05:44:41;;;;;;;7.07;4.30;;;9.00;89.60;;;;;;5042138;28;20829;-44
2021/11/04 05:47:08;;;;;;;6.37;3.93;;;8.90;89.60;;;;;;5037430;28;20470;-42
2021/11/04 05:49:38;;;;;;;6.00;4.20;;;9.00;89.70;;;;;;5029144;28;20803;-42
2021/11/04 05:52:05;;;;;;;7.33;4.83;;;8.90;89.80;;;;;;5029714;28;20457;-42
2021/11/04 05:54:32;;;;;;;6.40;4.77;;;8.90;89.60;;;;;;5008869;28;20457;-42
2021/11/04 05:57:00;;;;;;;6.37;4.90;;;8.90;89.60;;;;;;5017261;28;20454;-43
2021/11/04 05:59:27;;;;;;;8.60;5.10;;;8.90;89.70;;;;;;5009105;28;20942;-42
2021/11/04 06:01:54;;;;;;;7.77;5.57;;;9.00;89.60;;;;;;5023693;28;21049;-42
2021/11/04 06:04:22;;;;;;;7.50;6.20;;;8.90;89.80;;;;;;5022993;28;20467;-42
2021/11/04 06:06:49;;;;;;;8.83;6.20;;;9.00;89.60;;;;;;5024568;28;20830;-42
2021/11/04 06:09:15;;;;;;;7.83;6.10;;;9.00;89.30;;;;;;5025284;28;20452;-43
2021/11/04 06:11:42;;;;;;;9.63;6.80;;;9.00;89.20;;;;;;5023625;28;20452;-44
2021/11/04 06:14:09;;;;;;;9.50;7.90;;;9.00;89.30;;;;;;5031039;28;20458;-42
2021/11/04 06:16:36;;;;;;;12.63;8.70;;;9.00;89.40;;;;;;5019782;28;20498;-42
2021/11/04 06:19:03;;;;;;;11.33;7.73;;;8.90;89.60;;;;;;5026131;28;20459;-42
2021/11/04 06:21:30;;;;;;;18.17;10.80;;;9.00;89.60;;;;;;5017725;28;20506;-42
2021/11/04 06:23:56;;;;;;;17.67;11.17;;;9.00;89.30;;;;;;5024215;28;20478;-41
2021/11/04 06:26:23;;;;;;;20.20;11.07;;;9.00;89.30;;;;;;5019760;28;20463;-41
2021/11/04 06:28:50;;;;;;;23.30;12.70;;;9.00;89.00;;;;;;5028015;28;20489;-42
2021/11/04 06:31:17;;;;;;;20.77;11.07;;;9.00;89.20;;;;;;5019186;28;20472;-42
2021/11/04 06:33:44;;;;;;;23.57;13.17;;;9.00;89.10;;;;;;5032202;28;20475;-42
2021/11/04 06:36:11;;;;;;;29.93;16.90;;;9.00;88.90;;;;;;5012066;28;20470;-42
2021/11/04 06:38:38;;;;;;;23.07;14.10;;;9.00;89.30;;;;;;5017408;28;20447;-42
2021/11/04 06:41:05;;;;;;;26.23;14.87;;;9.00;89.40;;;;;;5026151;28;20484;-42
2021/11/04 06:43:31;;;;;;;31.50;16.40;;;9.00;89.40;;;;;;5025894;28;20463;-42
2021/11/04 06:46:01;;;;;;;26.37;15.77;;;9.00;89.40;;;;;;5028513;28;20456;-42
2021/11/04 06:48:48;;;;;;;30.73;17.27;;;9.00;89.30;;;;;;5014973;28;20463;-42
2021/11/04 06:51:21;;;;;;;31.03;16.57;;;9.00;88.80;;;;;;5029273;28;20451;-42
2021/11/04 06:53:55;;;;;;;30.00;15.83;;;8.90;88.90;;;;;;5032633;28;20459;-42
2021/11/04 06:56:23;;;;;;;30.63;15.97;;;8.90;89.00;;;;;;5010322;28;20464;-42
2021/11/04 06:58:53;;;;;;;22.87;14.97;;;9.00;88.70;;;;;;5032499;28;20854;-42
2021/11/04 07:01:22;;;;;;;29.53;16.20;;;9.00;88.50;;;;;;5029529;28;20513;-42
2021/11/04 07:03:52;;;;;;;29.10;16.10;;;9.00;88.40;;;;;;5033307;28;21019;-43
2021/11/04 09:53:23;;;;;;;22.63;13.30;;;9.10;85.20;;;;;;4909889;29;20996;-41
2021/11/04 09:55:50;;;;;;;23.33;14.47;;;9.10;85.60;;;;;;4909817;29;20465;-41
2021/11/04 09:58:17;;;;;;;23.70;15.33;;;9.10;85.80;;;;;;4911986;29;20471;-41
2021/11/04 10:04:37;;;;;;;23.73;14.07;;;9.20;85.70;;;;;;4912212;29;20849;-41
2021/11/04 10:07:03;;;;;;;26.10;13.53;;;9.30;84.30;;;;;;4909802;29;20457;-41
2021/11/04 10:09:30;;;;;;;30.17;14.47;;;9.30;84.30;;;;;;4911744;29;20865;-41
2021/11/04 10:11:57;;;;;;;23.37;12.90;;;9.30;84.20;;;;;;4906932;29;20465;-41
2021/11/04 10:14:32;;;;;;;18.13;12.50;;;9.40;84.20;;;;;;4905767;29;20461;-41
2021/11/04 10:16:59;;;;;;;18.87;13.60;;;9.40;83.80;;;;;;4909151;29;20951;-41
2021/11/04 10:19:40;;;;;;;25.03;12.20;;;9.40;83.80;;;;;;4891438;29;20494;-41
2021/11/04 10:22:47;;;;;;;23.63;13.77;;;9.40;84.30;;;;;;4901642;29;20507;-41
2021/11/04 10:25:22;;;;;;;21.40;12.80;;;9.40;84.00;;;;;;4880209;29;21189;-41
2021/11/04 10:27:50;;;;;;;17.70;13.03;;;9.40;83.40;;;;;;4893262;29;20457;-41
2021/11/04 10:30:40;;;;;;;17.97;12.63;;;9.40;83.60;;;;;;4890708;29;20521;-41
2021/11/04 10:33:20;;;;;;;17.43;11.20;;;9.40;83.00;;;;;;4876094;29;20472;-41
2021/11/04 10:36:01;;;;;;;20.27;12.20;;;9.40;83.30;;;;;;4892111;29;20476;-41
2021/11/04 10:38:35;;;;;;;20.30;11.20;;;9.40;83.10;;;;;;4880784;29;20476;-43
2021/11/04 10:41:04;;;;;;;18.80;11.50;;;9.40;82.90;;;;;;4893809;29;20492;-43
2021/11/04 10:43:32;;;;;;;23.10;11.67;;;9.30;83.70;;;;;;4888855;29;21020;-43
2021/11/04 10:46:08;;;;;;;15.23;10.10;;;9.30;84.00;;;;;;4886841;29;20538;-43
2021/11/04 10:48:36;;;;;;;18.70;10.00;;;9.40;83.30;;;;;;4889149;29;20474;-43
2021/11/04 10:51:03;;;;;;;16.30;10.37;;;9.40;83.20;;;;;;4889417;29;20843;-43
2021/11/04 10:53:30;;;;;;;16.20;9.70;;;9.40;83.10;;;;;;4891439;29;20498;-43
2021/11/04 10:56:14;;;;;;;17.07;9.80;;;9.50;83.00;;;;;;4892467;29;20952;-43
2021/11/04 10:58:41;;;;;;;16.80;9.63;;;9.50;82.90;;;;;;4890602;29;20472;-43
2021/11/04 11:01:52;;;;;;;15.17;9.00;;;9.50;82.60;;;;;;4892748;29;21015;-43
2021/11/04 11:04:20;;;;;;;15.07;9.37;;;9.40;83.20;;;;;;4881719;29;20460;-43
2021/11/04 11:06:48;;;;;;;16.90;9.23;;;9.40;82.90;;;;;;4890792;29;20468;-43
2021/11/04 11:10:08;;;;;;;16.80;9.80;;;9.40;83.00;;;;;;4889202;29;20462;-43
2021/11/04 11:12:39;;;;;;;15.40;8.70;;;9.40;83.10;;;;;;4891434;29;20457;-43
2021/11/04 11:15:06;;;;;;;14.77;9.23;;;9.40;83.70;;;;;;4891972;29;20468;-43
2021/11/04 11:17:33;;;;;;;19.37;11.40;;;9.40;83.80;;;;;;4887254;29;20458;-43
2021/11/04 11:20:00;;;;;;;15.07;9.50;;;9.40;83.40;;;;;;4876239;29;20458;-43
2021/11/04 11:22:26;;;;;;;12.73;9.57;;;9.50;83.30;;;;;;4892262;29;20485;-42
2021/11/04 11:24:54;;;;;;;18.00;10.57;;;9.50;82.90;;;;;;4894918;29;20461;-42
2021/11/04 11:27:24;;;;;;;17.90;10.60;;;9.40;83.20;;;;;;4895977;29;20469;-42
2021/11/04 11:29:51;;;;;;;15.40;10.10;;;9.40;84.00;;;;;;4898151;29;20466;-43
2021/11/04 11:32:22;;;;;;;16.47;10.00;;;9.50;84.40;;;;;;4879587;29;20456;-43
2021/11/04 12:04:39;;;;;;;10.27;7.80;;;9.70;81.90;;;;;;4930430;29;20471;-43
2021/11/04 12:07:28;;;;;;;12.40;7.80;;;9.70;81.70;;;;;;4918148;29;20532;-42
2021/11/04 12:09:54;;;;;;;12.77;8.70;;;9.80;82.70;;;;;;4923058;29;20448;-42
2021/11/04 12:12:42;;;;;;;13.33;7.53;;;9.80;82.20;;;;;;4908386;29;20545;-42
2021/11/04 12:15:09;;;;;;;11.30;7.30;;;9.80;81.70;;;;;;4923996;29;20445;-42
2021/11/04 12:17:35;;;;;;;14.70;8.00;;;9.80;81.50;;;;;;4907197;29;20528;-42
2021/11/04 12:20:04;;;;;;;13.37;8.13;;;9.80;81.30;;;;;;4920480;29;20493;-42
2021/11/04 12:22:40;;;;;;;11.27;8.33;;;9.80;82.00;;;;;;4924556;29;20521;-42
2021/11/04 12:25:13;;;;;;;16.60;6.90;;;9.90;82.60;;;;;;4920055;29;20524;-42
2021/11/04 12:27:42;;;;;;;11.07;7.53;;;9.90;82.70;;;;;;4926120;29;20463;-42
2021/11/04 12:30:19;;;;;;;10.77;6.53;;;10.00;82.30;;;;;;4922203;29;20545;-43
2021/11/04 12:33:10;;;;;;;8.50;6.77;;;10.00;81.80;;;;;;4918912;29;20471;-42
2021/11/04 12:35:48;;;;;;;9.77;7.17;;;10.10;81.60;;;;;;4921530;29;20462;-43
2021/11/04 12:38:22;;;;;;;10.47;7.17;;;10.10;80.90;;;;;;4918613;29;20520;-42
2021/11/04 12:41:05;;;;;;;7.40;5.70;;;10.10;80.80;;;;;;4923236;29;20539;-42
2021/11/04 12:43:36;;;;;;;6.73;5.10;;;10.20;80.90;;;;;;4917696;29;20453;-42
2021/11/04 12:46:23;;;;;;;9.20;5.50;;;10.20;80.00;;;;;;4923390;29;20449;-42
2021/11/04 12:48:58;;;;;;;6.80;4.50;;;10.20;80.60;;;;;;4925621;29;20451;-42
2021/11/04 12:51:27;;;;;;;8.23;5.57;;;10.20;80.50;;;;;;4917800;29;20996;-42
2021/11/04 12:53:59;;;;;;;9.67;5.63;;;10.20;80.00;;;;;;4919549;29;20469;-42
2021/11/04 12:56:55;;;;;;;7.67;4.77;;;10.20;79.70;;;;;;4889766;29;20482;-42
2021/11/04 12:59:44;;;;;;;13.53;6.83;;;10.20;79.60;;;;;;4899516;29;20473;-42
2021/11/04 13:02:19;;;;;;;7.27;5.17;;;10.20;79.90;;;;;;4898880;29;20558;-42
2021/11/04 13:05:15;;;;;;;7.87;5.07;;;10.20;80.00;;;;;;4900907;29;20463;-42
2021/11/04 13:07:48;;;;;;;7.73;5.30;;;10.20;79.80;;;;;;4906010;29;20896;-43
2021/11/04 13:10:22;;;;;;;6.87;3.90;;;10.20;79.90;;;;;;4907205;29;20450;-42
2021/11/04 13:12:53;;;;;;;6.37;3.63;;;10.20;79.40;;;;;;4896868;29;20468;-42
2021/11/04 13:15:28;;;;;;;6.07;3.73;;;10.10;80.10;;;;;;4901422;29;20457;-42
2021/11/04 13:18:08;;;;;;;5.93;4.50;;;10.10;79.60;;;;;;4907388;29;20469;-42
2021/11/04 13:20:41;;;;;;;5.37;4.00;;;10.20;79.70;;;;;;4891875;29;20454;-42
2021/11/04 13:23:13;;;;;;;6.17;4.07;;;10.20;79.70;;;;;;4910857;29;20520;-42
2021/11/04 13:25:41;;;;;;;4.53;4.00;;;10.20;79.90;;;;;;4875235;29;20561;-42
2021/11/04 13:28:16;;;;;;;7.40;4.13;;;10.20;79.30;;;;;;4908518;29;20470;-42
2021/11/04 13:30:49;;;;;;;8.17;4.20;;;10.10;79.10;;;;;;4906493;29;20461;-42
2021/11/04 13:33:36;;;;;;;5.53;4.40;;;10.10;79.60;;;;;;4893114;29;20442;-42
2021/11/04 13:36:16;;;;;;;5.57;3.90;;;10.00;80.10;;;;;;4888311;29;20454;-42
2021/11/04 13:38:48;;;;;;;7.30;4.43;;;10.10;80.10;;;;;;4906020;29;20456;-42
2021/11/04 13:41:34;;;;;;;5.70;4.23;;;10.10;80.10;;;;;;4907398;29;20497;-42
2021/11/04 13:44:04;;;;;;;5.30;4.80;;;10.10;80.30;;;;;;4888982;29;20454;-42
2021/11/04 13:46:31;;;;;;;4.50;4.10;;;10.10;80.70;;;;;;4904740;29;20458;-42
2021/11/04 13:49:07;;;;;;;4.90;3.90;;;10.10;80.90;;;;;;4890056;29;20472;-42
2021/11/04 13:51:43;;;;;;;4.90;4.00;;;10.10;80.80;;;;;;4905570;29;20496;-42
2021/11/04 13:54:24;;;;;;;9.80;5.60;;;10.10;80.70;;;;;;4907149;29;20505;-42
2021/11/04 13:56:57;;;;;;;6.00;4.60;;;10.00;81.00;;;;;;4890397;29;20473;-42
2021/11/04 13:59:34;;;;;;;5.07;4.23;;;10.10;81.20;;;;;;4886932;29;22060;-42
2021/11/04 14:02:06;;;;;;;4.37;3.40;;;10.10;80.30;;;;;;4902802;29;20493;-42
2021/11/04 14:04:33;;;;;;;3.77;2.77;;;10.10;78.70;;;;;;4900993;29;20522;-42
2021/11/04 14:07:00;;;;;;;3.90;3.37;;;10.10;78.40;;;;;;4904256;29;20464;-42
2021/11/04 14:09:32;;;;;;;3.20;2.60;;;10.10;78.40;;;;;;4884779;29;20473;-42
2021/11/04 14:12:05;;;;;;;3.10;2.43;;;10.00;77.50;;;;;;4906844;29;20531;-42
2021/11/04 14:15:20;;;;;;;3.70;2.37;;;10.00;77.80;;;;;;4890350;29;20461;-42
2021/11/04 14:17:53;;;;;;;3.97;3.20;;;10.00;77.30;;;;;;4886927;29;20465;-42
2021/11/04 14:20:23;;;;;;;4.77;3.70;;;10.00;77.60;;;;;;4889187;29;20480;-42
2021/11/04 14:22:51;;;;;;;3.83;2.90;;;9.90;77.70;;;;;;4903634;29;20561;-42
2021/11/04 14:25:18;;;;;;;4.60;2.93;;;9.90;78.40;;;;;;4900725;29;20466;-43
2021/11/04 14:28:05;;;;;;;3.97;3.00;;;9.90;78.30;;;;;;4886281;29;20454;-43
2021/11/04 14:30:34;;;;;;;4.30;3.27;;;9.90;78.80;;;;;;4902972;29;20548;-43
2021/11/04 14:33:01;;;;;;;5.17;4.57;;;9.90;78.80;;;;;;4908235;29;20963;-43
2021/11/04 14:35:30;;;;;;;4.40;4.00;;;9.90;79.00;;;;;;4902015;29;20466;-42
2021/11/04 14:37:57;;;;;;;4.10;3.70;;;9.90;78.90;;;;;;4903799;29;20836;-42
2021/11/04 14:40:25;;;;;;;5.27;4.37;;;9.90;78.90;;;;;;4898968;29;20549;-42
2021/11/04 14:42:52;;;;;;;4.00;3.50;;;9.90;79.50;;;;;;4890111;29;20485;-42
2021/11/04 14:45:23;;;;;;;4.63;3.60;;;9.90;79.10;;;;;;4902300;29;20463;-41
2021/11/04 14:47:51;;;;;;;7.20;4.40;;;9.90;79.30;;;;;;4894580;29;20457;-41
2021/11/04 14:50:19;;;;;;;5.17;4.60;;;9.90;79.50;;;;;;4880873;29;20953;-41
2021/11/04 14:52:48;;;;;;;7.27;5.17;;;9.90;79.80;;;;;;4894375;29;20557;-41
2021/11/04 14:55:14;;;;;;;9.83;6.17;;;9.90;80.40;;;;;;4895749;29;20565;-41
2021/11/04 14:57:41;;;;;;;6.37;4.50;;;9.90;80.70;;;;;;4896602;29;20844;-41
2021/11/04 15:00:09;;;;;;;6.30;5.20;;;9.80;80.80;;;;;;4878588;29;20473;-41
2021/11/04 15:02:36;;;;;;;6.10;5.00;;;9.80;81.20;;;;;;4892591;29;20492;-41
2021/11/04 15:05:07;;;;;;;4.73;4.20;;;9.80;81.50;;;;;;4894739;29;20836;-41
2021/11/04 15:07:34;;;;;;;6.43;5.47;;;9.80;81.50;;;;;;4897015;29;20469;-41
2021/11/04 15:10:03;;;;;;;9.90;5.83;;;9.80;81.70;;;;;;4896166;29;20477;-41
2021/11/04 15:12:30;;;;;;;5.67;4.60;;;9.80;81.80;;;;;;4891143;29;20465;-41
2021/11/04 15:14:56;;;;;;;6.53;5.00;;;9.80;81.90;;;;;;4880564;29;20470;-41
2021/11/04 15:17:23;;;;;;;6.07;5.20;;;9.70;82.20;;;;;;4892169;29;20473;-41
2021/11/04 15:19:50;;;;;;;6.60;5.03;;;9.80;82.10;;;;;;4893240;29;20465;-41
2021/11/04 15:22:17;;;;;;;8.47;6.43;;;9.70;82.20;;;;;;4889324;29;20504;-41
2021/11/04 15:24:44;;;;;;;6.70;4.73;;;9.70;82.40;;;;;;4891429;29;20469;-41
2021/11/04 15:27:14;;;;;;;7.20;5.13;;;9.70;82.40;;;;;;4894900;29;20992;-41
2021/11/04 15:29:41;;;;;;;6.20;4.50;;;9.70;82.40;;;;;;4896674;29;20461;-41
2021/11/04 15:32:10;;;;;;;8.73;6.80;;;9.70;82.30;;;;;;4892294;29;20493;-41
2021/11/04 15:34:38;;;;;;;8.40;6.10;;;9.70;82.50;;;;;;4895224;29;20462;-41
2021/11/04 15:37:05;;;;;;;9.57;6.70;;;9.70;82.70;;;;;;4894785;29;20547;-41
2021/11/04 15:39:32;;;;;;;9.70;8.70;;;9.70;82.70;;;;;;4890394;29;20492;-41
2021/11/04 15:42:00;;;;;;;8.43;7.00;;;9.70;82.80;;;;;;4894737;29;20498;-41
2021/11/04 15:44:26;;;;;;;11.03;7.17;;;9.70;82.90;;;;;;4893186;29;20461;-41
2021/11/04 15:46:53;;;;;;;9.03;6.07;;;9.70;82.90;;;;;;4891090;29;20462;-41
2021/11/04 15:49:20;;;;;;;8.30;6.60;;;9.70;83.10;;;;;;4893591;29;20513;-41
2021/11/04 15:51:47;;;;;;;6.10;5.50;;;9.80;83.40;;;;;;4895385;29;20461;-41
2021/11/04 15:54:15;;;;;;;10.17;6.30;;;9.70;83.50;;;;;;4897821;29;20468;-41
2021/11/04 15:56:41;;;;;;;6.97;6.27;;;9.70;83.70;;;;;;4892274;29;21038;-41
2021/11/04 15:59:08;;;;;;;10.20;5.90;;;9.70;84.00;;;;;;4887837;29;20470;-41
2021/11/04 16:01:35;;;;;;;9.07;5.70;;;9.70;84.10;;;;;;4893512;29;20577;-41
2021/11/04 16:04:02;;;;;;;7.80;6.10;;;9.70;84.30;;;;;;4889692;29;20465;-41
2021/11/04 16:06:38;;;;;;;7.10;6.40;;;9.70;84.40;;;;;;4892986;29;20462;-41
2021/11/04 16:09:13;;;;;;;7.53;6.03;;;9.70;84.50;;;;;;4859793;29;20469;-41
2021/11/04 16:11:41;;;;;;;8.00;5.60;;;9.70;84.60;;;;;;4889733;29;20469;-41
2021/11/04 16:14:08;;;;;;;9.10;6.60;;;9.70;84.50;;;;;;4886417;29;20466;-41
2021/11/04 16:16:35;;;;;;;7.97;6.40;;;9.70;84.70;;;;;;4893465;29;20479;-41
2021/11/04 16:19:02;;;;;;;9.77;7.30;;;9.70;84.80;;;;;;4874339;29;20462;-41
2021/11/04 16:21:33;;;;;;;10.87;7.10;;;9.60;84.90;;;;;;4891246;29;20496;-41
2021/11/04 16:24:06;;;;;;;7.13;6.37;;;9.60;85.00;;;;;;4883291;29;20540;-42